createdAt,value
2022-10-28T00:00:52.638Z,99.48
2022-10-28T00:03:20.531Z,99.33
2022-10-28T00:05:48.401Z,99.58
2022-10-28T00:08:15.903Z,99.07
2022-10-28T00:10:43.393Z,98.61
2022-10-28T00:13:10.904Z,98.93
2022-10-28T00:15:38.452Z,98.60
2022-10-28T00:18:07.346Z,98.70
2022-10-28T00:20:34.837Z,98.72
2022-10-28T00:23:02.325Z,98.83
2022-10-28T00:25:29.836Z,98.86
2022-10-28T00:27:57.355Z,99.11
2022-10-28T00:30:24.908Z,98.96
2022-10-28T00:32:53.724Z,98.80
2022-10-28T00:35:24.180Z,98.91
2022-10-28T00:37:53.865Z,98.46
2022-10-28T00:40:21.392Z,98.24
2022-10-28T00:42:48.892Z,98.20
2022-10-28T00:45:16.408Z,98.55
2022-10-28T00:47:52.503Z,98.50
2022-10-28T00:50:40.595Z,98.64
2022-10-28T00:53:14.824Z,98.37
2022-10-28T00:55:43.883Z,98.97
2022-10-28T00:58:12.437Z,99.23
2022-10-28T01:00:40.090Z,99.32
2022-10-28T01:03:08.176Z,99.72
2022-10-28T01:05:39.516Z,99.46
2022-10-28T01:08:07.531Z,99.26
2022-10-28T01:10:47.573Z,98.77
2022-10-28T01:13:24.470Z,98.74
2022-10-28T01:15:58.320Z,98.70
2022-10-28T01:18:34.821Z,98.84
2022-10-28T01:21:32.483Z,98.36
2022-10-28T01:24:16.498Z,98.67
2022-10-28T01:27:05.592Z,98.90
2022-10-28T01:30:03.730Z,99.41
2022-10-28T01:32:38.045Z,99.00
2022-10-28T01:35:18.321Z,99.46
2022-10-28T01:37:53.827Z,99.36
2022-10-28T01:40:26.901Z,99.47
2022-10-28T01:42:59.320Z,99.62
2022-10-28T01:45:31.717Z,99.35
2022-10-28T01:48:03.347Z,99.50
2022-10-28T01:50:37.017Z,99.32
2022-10-28T01:53:10.604Z,98.91
2022-10-28T01:55:41.044Z,98.66
2022-10-28T01:58:13.157Z,98.25
2022-10-28T02:00:41.691Z,99.40
2022-10-28T02:03:11.029Z,98.87
2022-10-28T02:05:44.619Z,99.27
2022-10-28T02:08:28.087Z,99.59
2022-10-28T02:11:11.258Z,99.79
2022-10-28T02:13:45.503Z,99.95
2022-10-28T02:16:21.403Z,99.89
2022-10-28T02:19:01.148Z,99.76
2022-10-28T02:21:38.206Z,100.00
2022-10-28T02:24:12.344Z,100.00
2022-10-28T02:26:42.765Z,100.00
2022-10-28T02:29:16.716Z,100.00
2022-10-28T02:31:48.910Z,100.00
2022-10-28T02:34:22.159Z,100.00
2022-10-28T02:36:53.585Z,100.00
2022-10-28T02:39:26.251Z,100.00
2022-10-28T02:41:56.984Z,100.00
2022-10-28T02:44:28.829Z,100.00
2022-10-28T02:47:00.443Z,100.00
2022-10-28T02:49:32.816Z,100.00
2022-10-28T02:52:03.683Z,100.00
2022-10-28T02:54:36.504Z,100.00
2022-10-28T02:57:08.959Z,100.00
2022-10-28T02:59:36.483Z,100.00
2022-10-28T03:02:04.479Z,100.00
2022-10-28T03:04:33.413Z,100.00
2022-10-28T03:07:01.019Z,100.00
2022-10-28T03:09:28.564Z,100.00
2022-10-28T03:11:56.060Z,100.00
2022-10-28T03:14:23.681Z,100.00
2022-10-28T03:16:51.192Z,100.00
2022-10-28T03:19:18.721Z,100.00
2022-10-28T03:21:47.564Z,100.00
2022-10-28T03:24:15.168Z,100.00
2022-10-28T03:26:42.995Z,100.00
2022-10-28T03:29:10.616Z,100.00
2022-10-28T03:31:38.210Z,100.00
2022-10-28T03:34:05.687Z,100.00
2022-10-28T03:36:33.209Z,100.00
2022-10-28T03:39:02.460Z,100.00
2022-10-28T03:41:29.963Z,100.00
2022-10-28T03:43:57.758Z,100.00
2022-10-28T03:46:25.381Z,100.00
2022-10-28T03:48:53.128Z,100.00
2022-10-28T03:51:21.010Z,100.00
2022-10-28T03:53:48.506Z,100.00
2022-10-28T03:56:17.544Z,100.00
2022-10-28T03:58:45.105Z,100.00
2022-10-28T04:01:12.696Z,100.00
2022-10-28T04:03:40.385Z,100.00
2022-10-28T04:06:09.875Z,100.00
2022-10-28T04:08:37.405Z,100.00
2022-10-28T04:11:05.252Z,100.00
2022-10-28T04:13:34.287Z,100.00
2022-10-28T04:16:02.380Z,100.00
2022-10-28T04:18:29.947Z,100.00
2022-10-28T04:20:57.538Z,100.00
2022-10-28T04:23:25.051Z,100.00
2022-10-28T04:25:53.980Z,100.00
2022-10-28T04:28:23.921Z,100.00
2022-10-28T04:30:52.963Z,100.00
2022-10-28T04:33:20.500Z,100.00
2022-10-28T04:35:48.020Z,100.00
2022-10-28T04:38:15.776Z,100.00
2022-10-28T04:40:43.569Z,100.00
2022-10-28T04:43:11.683Z,100.00
2022-10-28T04:45:39.562Z,100.00
2022-10-28T04:48:10.738Z,100.00
2022-10-28T04:50:38.959Z,100.00
2022-10-28T04:53:11.439Z,100.00
2022-10-28T04:55:39.255Z,100.00
2022-10-28T04:58:07.094Z,100.00
2022-10-28T05:00:34.598Z,100.00
2022-10-28T05:03:03.305Z,100.00
2022-10-28T05:05:32.714Z,100.00
2022-10-28T05:08:00.520Z,100.00
2022-10-28T05:10:28.147Z,100.00
2022-10-28T05:12:55.647Z,100.00
2022-10-28T05:15:23.156Z,100.00
2022-10-28T05:17:50.955Z,100.00
2022-10-28T05:20:21.074Z,100.00
2022-10-28T05:22:53.057Z,100.00
2022-10-28T05:25:22.264Z,100.00
2022-10-28T05:27:50.217Z,100.00
2022-10-28T05:30:18.434Z,100.00
2022-10-28T05:32:48.286Z,100.00
2022-10-28T05:35:17.955Z,100.00
2022-10-28T05:37:45.454Z,100.00
2022-10-28T05:40:15.298Z,100.00
2022-10-28T05:42:43.299Z,100.00
2022-10-28T05:45:11.693Z,100.00
2022-10-28T05:47:43.368Z,100.00
2022-10-28T05:50:11.263Z,100.00
2022-10-28T05:52:38.777Z,100.00
2022-10-28T05:55:07.336Z,100.00
2022-10-28T05:57:36.864Z,100.00
2022-10-28T06:00:05.574Z,100.00
2022-10-28T06:02:40.012Z,100.00
2022-10-28T06:05:08.200Z,100.00
2022-10-28T06:07:36.164Z,100.00
2022-10-28T06:10:08.133Z,100.00
2022-10-28T06:12:35.642Z,100.00
2022-10-28T06:15:04.300Z,100.00
2022-10-28T06:17:31.856Z,100.00
2022-10-28T06:19:59.388Z,100.00
2022-10-28T06:22:26.935Z,100.00
2022-10-28T06:24:54.453Z,100.00
2022-10-28T06:27:21.980Z,100.00
2022-10-28T06:29:50.827Z,100.00
2022-10-28T06:32:18.435Z,100.00
2022-10-28T06:34:45.978Z,100.00
2022-10-28T06:37:13.575Z,100.00
2022-10-28T06:39:41.897Z,100.00
2022-10-28T06:42:09.448Z,100.00
2022-10-28T06:44:36.968Z,100.00
2022-10-28T06:47:08.015Z,100.00
2022-10-28T06:49:35.573Z,100.00
2022-10-28T06:52:03.064Z,100.00
2022-10-28T06:54:30.596Z,100.00
2022-10-28T06:56:58.227Z,100.00
2022-10-28T06:59:25.706Z,100.00
2022-10-28T07:01:53.272Z,100.00
2022-10-28T07:04:22.275Z,100.00
2022-10-28T07:06:51.959Z,100.00
2022-10-28T07:09:19.709Z,100.00
2022-10-28T07:11:53.656Z,100.00
2022-10-28T07:14:22.790Z,100.00
2022-10-28T07:16:50.305Z,100.00
2022-10-28T07:19:21.670Z,100.00
2022-10-28T07:21:51.421Z,100.00
2022-10-28T07:24:18.944Z,100.00
2022-10-28T07:26:50.295Z,100.00
2022-10-28T07:29:19.703Z,100.00
2022-10-28T07:31:47.260Z,100.00
2022-10-28T07:34:14.968Z,100.00
2022-10-28T07:36:42.461Z,100.00
2022-10-28T07:39:11.958Z,100.00
2022-10-28T07:41:39.450Z,100.00
2022-10-28T07:44:07.762Z,100.00
2022-10-28T07:46:35.561Z,100.00
2022-10-28T07:49:03.151Z,100.00
2022-10-28T07:51:30.876Z,100.00
2022-10-28T07:53:58.832Z,100.00
2022-10-28T07:56:27.838Z,100.00
2022-10-28T07:58:55.339Z,100.00
2022-10-28T08:01:23.264Z,100.00
2022-10-28T08:03:50.871Z,100.00
2022-10-28T08:06:20.796Z,100.00
2022-10-28T08:08:49.843Z,100.00
2022-10-28T08:11:19.978Z,100.00
2022-10-28T08:13:49.254Z,100.00
2022-10-28T08:16:16.778Z,99.86
2022-10-28T08:18:45.722Z,99.26
2022-10-28T08:21:14.714Z,99.31
2022-10-28T08:23:46.297Z,98.48
2022-10-28T08:26:14.825Z,98.91
2022-10-28T08:28:42.713Z,99.58
2022-10-28T08:31:12.266Z,98.92
2022-10-28T08:33:42.154Z,98.62
2022-10-28T08:36:12.671Z,97.98
2022-10-28T08:38:45.178Z,98.21
2022-10-28T08:41:30.957Z,98.23
2022-10-28T08:44:37.185Z,97.76
2022-10-28T08:47:21.774Z,98.06
2022-10-28T08:49:55.831Z,97.68
2022-10-28T08:52:30.738Z,97.20
2022-10-28T08:55:03.233Z,96.97
2022-10-28T08:57:38.667Z,97.26
2022-10-28T09:00:08.789Z,97.10
2022-10-28T09:02:49.824Z,96.78
2022-10-28T09:05:22.770Z,95.89
2022-10-28T09:07:50.614Z,95.93
2022-10-28T09:10:28.889Z,95.04
2022-10-28T09:13:07.905Z,94.32
2022-10-28T09:18:20.488Z,93.84
2022-10-28T09:20:53.513Z,93.42
2022-10-28T09:23:24.513Z,93.40
2022-10-28T09:26:07.188Z,92.30
2022-10-28T09:28:51.429Z,94.00
2022-10-28T09:31:28.773Z,93.54
2022-10-28T09:34:07.390Z,93.85
2022-10-28T09:36:37.857Z,94.03
2022-10-28T09:39:08.118Z,94.36
2022-10-28T09:41:39.715Z,94.10
2022-10-28T09:44:14.927Z,93.74
2022-10-28T09:46:42.592Z,93.55
2022-10-28T09:49:17.480Z,93.42
2022-10-28T09:51:51.291Z,91.54
2022-10-28T09:54:23.484Z,90.31
2022-10-28T09:56:52.491Z,89.32
2022-10-28T09:59:20.064Z,88.95
2022-10-28T10:01:47.792Z,88.08
2022-10-28T10:04:20.851Z,88.39
2022-10-28T10:06:52.844Z,87.26
2022-10-28T10:09:24.575Z,85.87
2022-10-28T10:11:55.841Z,84.97
2022-10-28T10:14:28.918Z,84.83
2022-10-28T10:16:59.891Z,84.85
2022-10-28T10:19:28.787Z,84.47
2022-10-28T10:21:56.506Z,82.79
2022-10-28T10:24:31.704Z,82.35
2022-10-28T10:27:02.193Z,82.05
2022-10-28T10:29:31.567Z,82.73
2022-10-28T10:32:08.095Z,82.98
2022-10-28T10:34:37.154Z,82.71
2022-10-28T10:37:05.219Z,83.43
2022-10-28T10:39:38.022Z,82.16
2022-10-28T10:42:16.349Z,82.91
2022-10-28T10:44:44.431Z,84.11
2022-10-28T10:47:20.817Z,84.05
2022-10-28T10:49:51.857Z,83.43
2022-10-28T10:52:22.678Z,82.14
2022-10-28T10:55:02.144Z,81.78
2022-10-28T10:57:30.484Z,81.55
2022-10-28T10:59:58.557Z,81.53
2022-10-28T11:02:31.782Z,80.23
2022-10-28T11:05:03.223Z,80.15
2022-10-28T11:07:32.694Z,80.10
2022-10-28T11:10:01.347Z,77.73
2022-10-28T11:12:31.829Z,76.26
2022-10-28T11:15:01.289Z,74.81
2022-10-28T11:20:25.314Z,71.39
2022-10-28T11:23:08.341Z,71.09
2022-10-28T11:25:38.007Z,71.01
2022-10-28T11:28:28.354Z,70.25
2022-10-28T11:33:48.812Z,66.96
2022-10-28T11:36:24.845Z,64.20
2022-10-28T11:39:13.283Z,63.04
2022-10-28T11:41:56.571Z,59.99
2022-10-28T11:44:42.625Z,57.96
2022-10-28T11:47:40.952Z,58.93
2022-10-28T11:50:23.991Z,58.87
2022-10-28T11:53:11.776Z,58.66
2022-10-28T11:55:43.822Z,58.57
2022-10-28T11:58:26.880Z,56.53
2022-10-28T12:01:05.954Z,57.11
2022-10-28T12:03:47.415Z,58.02
2022-10-28T12:06:22.142Z,57.82
2022-10-28T12:11:49.675Z,56.36
2022-10-28T12:14:23.326Z,52.84
2022-10-28T12:16:57.175Z,52.27
2022-10-28T12:19:30.540Z,51.69
2022-10-28T12:22:04.229Z,49.31
2022-10-28T12:24:37.572Z,47.89
2022-10-28T12:27:17.045Z,45.84
2022-10-28T12:29:51.146Z,46.24
2022-10-28T12:32:23.767Z,46.92
2022-10-28T12:34:57.228Z,44.91
2022-10-28T12:37:27.647Z,43.26
2022-10-28T12:40:03.122Z,44.64
2022-10-28T12:42:34.952Z,41.16
2022-10-28T12:45:06.258Z,41.43
2022-10-28T12:47:42.212Z,40.57
2022-10-28T12:50:18.940Z,41.92
2022-10-28T12:52:55.214Z,40.52
2022-10-28T12:55:34.251Z,39.30
2022-10-28T12:58:06.959Z,39.26
2022-10-28T13:00:38.726Z,37.98
2022-10-28T13:03:08.582Z,38.51
2022-10-28T13:05:41.811Z,37.77
2022-10-28T13:08:29.094Z,36.36
2022-10-28T13:11:19.387Z,37.31
2022-10-28T13:13:55.187Z,37.29
2022-10-28T13:16:47.895Z,35.97
2022-10-28T13:19:29.401Z,36.12
2022-10-28T13:25:16.261Z,35.06
2022-10-28T13:27:45.429Z,35.73
2022-10-28T13:30:17.869Z,36.42
2022-10-28T13:32:46.186Z,37.17
2022-10-28T13:35:20.874Z,37.13
2022-10-28T13:37:51.719Z,38.86
2022-10-28T13:40:44.431Z,40.80
2022-10-28T13:43:21.076Z,41.40
2022-10-28T13:45:51.311Z,40.81
2022-10-28T13:48:47.847Z,42.61
2022-10-28T13:51:32.606Z,44.49
2022-10-28T13:54:02.536Z,45.83
2022-10-28T13:56:45.379Z,45.89
2022-10-28T13:59:29.102Z,42.89
2022-10-28T14:02:36.189Z,43.28
2022-10-28T14:05:07.332Z,42.41
2022-10-28T14:07:37.283Z,43.64
2022-10-28T14:10:21.522Z,46.06
2022-10-28T14:12:52.729Z,46.35
2022-10-28T14:15:26.028Z,46.60
2022-10-28T14:18:05.156Z,48.72
2022-10-28T14:20:58.914Z,50.09
2022-10-28T14:24:06.674Z,50.40
2022-10-28T14:27:19.421Z,50.37
2022-10-28T14:29:49.386Z,51.09
2022-10-28T14:32:51.912Z,49.97
2022-10-28T14:35:29.659Z,50.89
2022-10-28T14:38:41.695Z,51.08
2022-10-28T14:41:19.914Z,52.53
2022-10-28T14:43:58.188Z,52.67
2022-10-28T14:46:49.399Z,53.69
2022-10-28T14:49:22.598Z,54.84
2022-10-28T14:51:50.879Z,55.14
2022-10-28T14:54:38.217Z,55.41
2022-10-28T14:57:08.907Z,58.05
2022-10-28T14:59:39.072Z,58.04
2022-10-28T15:02:15.496Z,59.36
2022-10-28T15:04:46.906Z,60.07
2022-10-28T15:07:17.124Z,60.67
2022-10-28T15:09:47.301Z,61.96
2022-10-28T15:12:17.723Z,61.56
2022-10-28T15:14:48.008Z,61.58
2022-10-28T15:17:18.598Z,62.59
2022-10-28T15:19:49.691Z,63.58
2022-10-28T15:22:20.986Z,64.52
2022-10-28T15:24:56.170Z,65.21
2022-10-28T15:27:24.651Z,66.49
2022-10-28T15:29:52.423Z,67.00
2022-10-28T15:32:32.511Z,67.70
2022-10-28T15:35:38.064Z,68.99
2022-10-28T15:38:32.266Z,69.21
2022-10-28T15:41:00.035Z,70.92
2022-10-28T15:43:29.007Z,72.48
2022-10-28T15:46:10.246Z,72.71
2022-10-28T15:48:38.365Z,72.99
2022-10-28T15:51:15.477Z,74.60
2022-10-28T15:53:43.810Z,76.65
2022-10-28T15:56:20.421Z,77.54
2022-10-28T15:58:50.518Z,79.05
2022-10-28T16:01:32.370Z,79.42
2022-10-28T16:04:00.021Z,80.66
2022-10-28T16:06:31.491Z,81.06
2022-10-28T16:09:13.433Z,81.77
2022-10-28T16:11:43.846Z,82.44
2022-10-28T16:14:29.279Z,83.12
2022-10-28T16:16:59.925Z,83.52
2022-10-28T16:19:31.203Z,84.63
2022-10-28T16:22:00.098Z,85.73
2022-10-28T16:24:27.624Z,86.27
2022-10-28T16:26:55.200Z,86.59
2022-10-28T16:29:22.716Z,88.05
2022-10-28T16:31:52.461Z,88.42
2022-10-28T16:34:19.979Z,88.70
2022-10-28T16:36:47.467Z,89.82
2022-10-28T16:39:16.451Z,90.89
2022-10-28T16:41:44.035Z,91.83
2022-10-28T16:44:17.507Z,91.45
2022-10-28T16:46:45.061Z,92.00
2022-10-28T16:49:12.548Z,91.41
2022-10-28T16:51:40.123Z,92.07
2022-10-28T16:54:07.757Z,92.78
2022-10-28T16:56:36.658Z,93.35
2022-10-28T16:59:04.175Z,92.75
2022-10-28T17:01:31.735Z,93.37
2022-10-28T17:03:59.367Z,93.25
2022-10-28T17:06:26.880Z,92.99
2022-10-28T17:09:02.885Z,93.23
2022-10-28T17:14:05.048Z,93.11
2022-10-28T17:16:32.631Z,93.45
2022-10-28T17:19:00.133Z,93.96
2022-10-28T17:21:27.703Z,94.81
2022-10-28T17:23:55.236Z,94.32
2022-10-28T17:26:23.049Z,94.28
2022-10-28T17:28:52.605Z,93.82
2022-10-28T17:31:24.931Z,93.89
2022-10-28T17:33:54.460Z,93.98
2022-10-28T17:36:23.029Z,94.11
2022-10-28T17:38:50.661Z,94.23
2022-10-28T17:41:19.150Z,94.57
2022-10-28T17:43:46.660Z,95.46
2022-10-28T17:46:14.144Z,96.18
2022-10-28T17:48:43.003Z,97.02
2022-10-28T17:51:10.567Z,96.62
2022-10-28T17:53:38.103Z,96.48
2022-10-28T17:56:07.653Z,96.38
2022-10-28T17:58:35.226Z,96.86
2022-10-28T18:01:04.715Z,95.57
2022-10-28T18:03:38.082Z,95.49
2022-10-28T18:06:10.879Z,97.73
2022-10-28T18:08:40.005Z,98.95
2022-10-28T18:11:09.086Z,99.17
2022-10-28T18:13:38.457Z,98.82
2022-10-28T18:16:06.964Z,99.05
2022-10-28T18:18:40.862Z,98.44
2022-10-28T18:21:12.416Z,98.19
2022-10-28T18:23:41.495Z,98.40
2022-10-28T18:26:12.090Z,100.00
2022-10-28T18:28:41.073Z,100.00
2022-10-28T18:31:12.376Z,100.00
2022-10-28T18:33:40.153Z,100.00
2022-10-28T18:36:11.565Z,100.00
2022-10-28T18:38:40.668Z,100.00
2022-10-28T18:41:11.518Z,100.00
2022-10-28T18:43:39.442Z,100.00
2022-10-28T18:46:07.108Z,100.00
2022-10-28T18:48:34.696Z,100.00
2022-10-28T18:51:06.458Z,100.00
2022-10-28T18:53:37.379Z,100.00
2022-10-28T18:56:07.613Z,100.00
2022-10-28T18:58:35.867Z,100.00
2022-10-28T19:01:08.420Z,100.00
2022-10-28T19:03:36.705Z,100.00
2022-10-28T19:06:06.161Z,100.00
2022-10-28T19:08:33.932Z,100.00
2022-10-28T19:11:02.856Z,100.00
2022-10-28T19:13:33.727Z,100.00
2022-10-28T19:16:01.441Z,100.00
2022-10-28T19:18:29.486Z,100.00
2022-10-28T19:21:04.006Z,100.00
2022-10-28T19:23:32.322Z,100.00
2022-10-28T19:26:00.077Z,100.00
2022-10-28T19:28:27.611Z,100.00
2022-10-28T19:31:04.340Z,100.00
2022-10-28T19:33:32.614Z,100.00
2022-10-28T19:36:05.588Z,100.00
2022-10-28T19:38:34.748Z,100.00
2022-10-28T19:41:03.943Z,100.00
2022-10-28T19:43:31.930Z,100.00
2022-10-28T19:46:10.160Z,100.00
2022-10-28T19:48:38.650Z,100.00
2022-10-28T19:51:06.623Z,100.00
2022-10-28T19:53:34.228Z,100.00
2022-10-28T19:56:03.315Z,100.00
2022-10-28T19:58:31.974Z,100.00
2022-10-28T20:01:01.261Z,100.00
2022-10-28T20:03:34.323Z,100.00
2022-10-28T20:06:05.391Z,100.00
2022-10-28T20:08:35.550Z,100.00
2022-10-28T20:11:05.462Z,100.00
2022-10-28T20:13:33.630Z,100.00
2022-10-28T20:16:03.209Z,100.00
2022-10-28T20:18:33.017Z,100.00
2022-10-28T20:21:05.180Z,100.00
2022-10-28T20:23:33.123Z,100.00
2022-10-28T20:26:00.762Z,100.00
2022-10-28T20:28:28.875Z,100.00
2022-10-28T20:31:01.034Z,100.00
2022-10-28T20:33:30.163Z,100.00
2022-10-28T20:35:59.635Z,100.00
2022-10-28T20:38:27.571Z,100.00
2022-10-28T20:40:57.379Z,100.00
2022-10-28T20:43:26.554Z,100.00
2022-10-28T20:45:55.487Z,100.00
2022-10-28T20:48:23.816Z,100.00
2022-10-28T20:50:56.497Z,100.00
2022-10-28T20:53:26.154Z,100.00
2022-10-28T20:55:55.767Z,100.00
2022-10-28T20:58:25.917Z,100.00
2022-10-28T21:00:54.063Z,100.00
2022-10-28T21:03:22.690Z,100.00
2022-10-28T21:05:50.227Z,100.00
2022-10-28T21:08:17.788Z,100.00
2022-10-28T21:10:46.672Z,100.00
2022-10-28T21:13:14.239Z,100.00
2022-10-28T21:15:45.458Z,100.00
2022-10-28T21:18:13.897Z,100.00
2022-10-28T21:20:41.654Z,100.00
2022-10-28T21:23:09.190Z,100.00
2022-10-28T21:25:36.714Z,100.00
2022-10-28T21:28:05.968Z,100.00
2022-10-28T21:30:33.510Z,100.00
2022-10-28T21:33:06.010Z,100.00
2022-10-28T21:35:33.570Z,100.00
2022-10-28T21:38:01.079Z,100.00
2022-10-28T21:40:28.620Z,100.00
2022-10-28T21:43:00.678Z,100.00
2022-10-28T21:45:31.817Z,100.00
2022-10-28T21:47:59.503Z,100.00
2022-10-28T21:50:27.107Z,100.00
2022-10-28T21:55:41.544Z,100.00
2022-10-28T21:58:10.715Z,100.00
2022-10-28T22:00:39.770Z,100.00
2022-10-28T22:03:07.416Z,100.00
2022-10-28T22:05:34.926Z,100.00
2022-10-28T22:08:04.848Z,100.00
2022-10-28T22:10:32.991Z,100.00
2022-10-28T22:13:00.541Z,100.00
2022-10-28T22:15:28.053Z,100.00
2022-10-28T22:17:57.255Z,100.00
2022-10-28T22:22:58.014Z,100.00
2022-10-28T22:25:25.703Z,100.00
2022-10-28T22:27:53.211Z,100.00
2022-10-28T22:30:20.746Z,100.00
2022-10-28T22:32:48.223Z,100.00
2022-10-28T22:35:17.172Z,100.00
2022-10-28T22:37:44.685Z,100.00
2022-10-28T22:40:12.630Z,100.00
2022-10-28T22:42:40.296Z,100.00
2022-10-28T22:45:08.747Z,100.00
2022-10-28T22:47:36.293Z,100.00
2022-10-28T22:50:04.077Z,100.00
2022-10-28T22:52:32.971Z,100.00
2022-10-28T22:55:00.496Z,100.00
2022-10-28T22:57:28.031Z,100.00
2022-10-28T22:59:55.666Z,100.00
2022-10-28T23:02:23.229Z,100.00
2022-10-28T23:04:50.893Z,100.00
2022-10-28T23:07:18.483Z,100.00
2022-10-28T23:09:47.331Z,100.00
2022-10-28T23:12:14.910Z,100.00
2022-10-28T23:14:42.431Z,100.00
2022-10-28T23:17:09.973Z,100.00
2022-10-28T23:19:37.478Z,100.00
2022-10-28T23:22:04.978Z,100.00
2022-10-28T23:24:32.540Z,100.00
2022-10-28T23:27:01.369Z,100.00
2022-10-28T23:29:28.923Z,100.00
2022-10-28T23:31:56.410Z,100.00
2022-10-28T23:34:24.026Z,100.00
2022-10-28T23:36:54.014Z,100.00
2022-10-28T23:39:21.830Z,100.00
2022-10-28T23:41:49.665Z,100.00
2022-10-28T23:44:18.543Z,100.00
2022-10-28T23:46:46.125Z,100.00
2022-10-28T23:49:13.747Z,100.00
2022-10-28T23:51:41.316Z,100.00
2022-10-28T23:54:08.907Z,100.00
2022-10-28T23:56:36.443Z,100.00
2022-10-28T23:59:03.974Z,100.00
